createdAt,value
2022-11-19T00:01:25.906Z,27.40
2022-11-19T00:03:53.467Z,40.30
2022-11-19T00:06:23.190Z,21.10
2022-11-19T00:08:49.961Z,19.50
2022-11-19T00:11:37.729Z,25.00
2022-11-19T00:14:05.082Z,24.80
2022-11-19T00:16:32.002Z,22.30
2022-11-19T00:18:59.255Z,20.60
2022-11-19T00:21:26.203Z,27.20
2022-11-19T00:23:54.152Z,24.10
2022-11-19T00:26:21.495Z,27.50
2022-11-19T00:28:48.400Z,24.10
2022-11-19T00:31:16.347Z,17.60
2022-11-19T00:33:45.007Z,24.80
2022-11-19T00:36:14.928Z,22.90
2022-11-19T00:38:42.564Z,16.70
2022-11-19T00:41:10.292Z,17.90
2022-11-19T00:43:46.415Z,19.80
2022-11-19T00:46:15.406Z,20.00
2022-11-19T00:48:42.312Z,22.00
2022-11-19T00:51:09.971Z,18.30
2022-11-19T00:53:37.308Z,19.10
2022-11-19T00:56:07.565Z,22.60
2022-11-19T00:58:34.967Z,19.10
2022-11-19T01:01:02.115Z,19.70
2022-11-19T01:03:29.604Z,17.40
2022-11-19T01:05:57.432Z,15.30
2022-11-19T01:08:24.270Z,21.00
2022-11-19T01:10:51.399Z,15.30
2022-11-19T01:13:36.807Z,20.20
2022-11-19T01:16:08.253Z,23.30
2022-11-19T01:18:36.493Z,16.50
2022-11-19T01:21:05.243Z,17.20
2022-11-19T01:23:33.462Z,19.80
2022-11-19T01:26:00.821Z,14.90
2022-11-19T01:28:28.565Z,21.00
2022-11-19T01:30:55.538Z,17.20
2022-11-19T01:33:22.556Z,18.20
2022-11-19T01:36:01.027Z,14.40
2022-11-19T01:38:29.076Z,12.50
2022-11-19T01:40:57.006Z,13.40
2022-11-19T01:43:47.132Z,7.70
2022-11-19T01:46:28.323Z,6.10
2022-11-19T01:49:00.841Z,3.80
2022-11-19T01:51:32.647Z,5.80
2022-11-19T01:54:04.615Z,3.80
2022-11-19T01:56:31.555Z,3.60
2022-11-19T01:59:03.469Z,5.00
2022-11-19T02:01:31.959Z,5.40
2022-11-19T02:04:04.441Z,3.20
2022-11-19T02:06:33.818Z,3.90
2022-11-19T02:09:00.737Z,3.90
2022-11-19T02:11:37.394Z,4.10
2022-11-19T02:14:22.463Z,8.40
2022-11-19T02:17:11.121Z,5.90
2022-11-19T02:19:40.898Z,4.30
2022-11-19T02:22:23.491Z,6.40
2022-11-19T02:24:53.278Z,5.30
2022-11-19T02:27:35.479Z,3.70
2022-11-19T02:30:05.446Z,4.10
2022-11-19T02:33:08.226Z,3.70
2022-11-19T02:35:43.033Z,3.20
2022-11-19T02:38:23.757Z,3.90
2022-11-19T02:41:23.917Z,2.40
2022-11-19T02:44:20.910Z,2.60
2022-11-19T02:46:51.669Z,2.70
2022-11-19T02:49:23.058Z,2.10
2022-11-19T02:51:50.085Z,3.40
2022-11-19T02:54:17.732Z,2.20
2022-11-19T02:56:51.416Z,2.20
2022-11-19T02:59:44.563Z,2.30
2022-11-19T03:02:33.551Z,2.30
2022-11-19T03:05:01.899Z,2.80
2022-11-19T03:07:29.054Z,2.10
2022-11-19T03:09:59.697Z,1.90
2022-11-19T03:12:49.502Z,2.70
2022-11-19T03:15:53.463Z,2.40
2022-11-19T03:18:38.344Z,2.40
2022-11-19T03:21:05.312Z,2.10
2022-11-19T03:23:39.697Z,2.50
2022-11-19T03:26:35.021Z,2.60
2022-11-19T03:29:05.410Z,2.10
2022-11-19T03:31:34.207Z,2.30
2022-11-19T03:34:07.164Z,2.20
2022-11-19T03:36:40.340Z,2.20
2022-11-19T03:39:14.994Z,2.10
2022-11-19T03:41:46.130Z,3.00
2022-11-19T03:44:30.051Z,2.90
2022-11-19T03:47:09.369Z,3.20
2022-11-19T03:49:41.091Z,3.20
2022-11-19T03:52:14.746Z,2.90
2022-11-19T03:54:42.235Z,3.20
2022-11-19T03:57:13.253Z,4.10
2022-11-19T03:59:40.273Z,5.20
2022-11-19T04:02:09.473Z,4.30
2022-11-19T04:04:37.795Z,5.80
2022-11-19T04:07:16.796Z,5.80
2022-11-19T04:09:44.062Z,4.40
2022-11-19T04:12:22.071Z,5.10
2022-11-19T04:14:49.775Z,4.30
2022-11-19T04:17:18.031Z,6.20
2022-11-19T04:19:45.066Z,5.80
2022-11-19T04:22:12.035Z,9.20
2022-11-19T04:24:38.815Z,8.30
2022-11-19T04:27:05.585Z,8.50
2022-11-19T04:29:32.458Z,9.50
2022-11-19T04:31:59.250Z,7.90
2022-11-19T04:34:26.134Z,10.00
2022-11-19T04:36:52.889Z,6.70
2022-11-19T04:39:20.213Z,9.40
2022-11-19T04:41:47.437Z,6.80
2022-11-19T04:44:14.337Z,8.10
2022-11-19T04:46:41.123Z,6.80
2022-11-19T04:49:07.971Z,11.10
2022-11-19T04:51:34.750Z,10.80
2022-11-19T04:54:01.680Z,8.70
2022-11-19T04:56:28.599Z,9.50
2022-11-19T04:58:55.447Z,9.90
2022-11-19T05:01:22.321Z,11.90
2022-11-19T05:03:50.224Z,9.70
2022-11-19T05:06:17.025Z,9.00
2022-11-19T05:08:44.552Z,10.20
2022-11-19T05:11:11.811Z,13.70
2022-11-19T05:13:38.670Z,9.00
2022-11-19T05:16:05.629Z,9.50
2022-11-19T05:18:33.285Z,11.00
2022-11-19T05:21:00.270Z,13.40
2022-11-19T05:23:28.014Z,15.20
2022-11-19T05:25:54.916Z,8.40
2022-11-19T05:28:32.707Z,13.50
2022-11-19T05:31:05.415Z,11.80
2022-11-19T05:33:34.231Z,13.90
2022-11-19T05:36:02.515Z,15.00
2022-11-19T05:38:29.331Z,12.00
2022-11-19T05:40:56.156Z,12.80
2022-11-19T05:43:23.071Z,13.50
2022-11-19T05:45:49.885Z,15.70
2022-11-19T05:48:16.702Z,14.90
2022-11-19T05:50:43.481Z,15.40
2022-11-19T05:53:10.294Z,13.00
2022-11-19T05:55:37.020Z,19.30
2022-11-19T05:58:03.848Z,16.60
2022-11-19T06:00:30.756Z,16.30
2022-11-19T06:02:57.730Z,19.30
2022-11-19T06:05:24.493Z,17.70
2022-11-19T06:07:51.282Z,12.90
2022-11-19T06:10:18.220Z,14.60
2022-11-19T06:12:46.076Z,14.20
2022-11-19T06:15:14.250Z,19.50
2022-11-19T06:17:41.595Z,19.70
2022-11-19T06:20:10.505Z,14.20
2022-11-19T06:22:38.213Z,16.10
2022-11-19T06:25:07.241Z,17.90
2022-11-19T06:27:34.538Z,17.10
2022-11-19T06:30:01.714Z,19.00
2022-11-19T06:32:32.276Z,17.10
2022-11-19T06:35:04.649Z,17.00
2022-11-19T06:37:31.881Z,18.00
2022-11-19T06:39:58.758Z,12.90
2022-11-19T06:42:38.372Z,21.60
2022-11-19T06:45:14.249Z,19.10
2022-11-19T06:47:42.224Z,15.30
2022-11-19T06:50:10.336Z,17.70
2022-11-19T06:52:37.741Z,16.50
2022-11-19T06:55:05.024Z,16.60
2022-11-19T06:57:31.867Z,19.50
2022-11-19T06:59:58.948Z,15.00
2022-11-19T07:02:25.820Z,18.00
2022-11-19T07:04:52.645Z,22.80
2022-11-19T07:07:20.805Z,21.00
2022-11-19T07:09:47.750Z,22.00
2022-11-19T07:12:14.561Z,19.90
2022-11-19T07:14:41.399Z,19.20
2022-11-19T07:17:08.309Z,21.50
2022-11-19T07:19:35.085Z,22.80
2022-11-19T07:22:01.917Z,20.00
2022-11-19T07:24:28.677Z,18.60
2022-11-19T07:26:55.904Z,15.60
2022-11-19T07:29:22.970Z,18.00
2022-11-19T07:31:52.681Z,19.40
2022-11-19T07:34:20.127Z,21.30
2022-11-19T07:36:47.330Z,23.10
2022-11-19T07:39:14.167Z,21.40
2022-11-19T07:41:59.934Z,21.70
2022-11-19T07:44:26.736Z,19.80
2022-11-19T07:46:53.533Z,18.70
2022-11-19T07:49:20.798Z,19.80
2022-11-19T07:51:48.373Z,23.30
2022-11-19T07:54:15.956Z,20.70
2022-11-19T07:56:42.966Z,30.50
2022-11-19T07:59:10.332Z,20.00
2022-11-19T08:01:38.186Z,24.90
2022-11-19T08:04:05.362Z,24.30
2022-11-19T08:06:34.123Z,21.70
2022-11-19T08:09:02.256Z,24.10
2022-11-19T08:11:29.167Z,22.10
2022-11-19T08:13:59.322Z,16.80
2022-11-19T08:16:44.674Z,20.80
2022-11-19T08:19:13.980Z,20.50
2022-11-19T08:21:43.889Z,21.60
2022-11-19T08:24:11.795Z,22.30
2022-11-19T08:26:40.406Z,21.90
2022-11-19T08:29:13.077Z,22.70
2022-11-19T08:31:45.216Z,22.90
2022-11-19T08:34:12.455Z,21.00
2022-11-19T08:36:39.635Z,19.10
2022-11-19T08:39:06.553Z,19.60
2022-11-19T08:41:52.427Z,21.80
2022-11-19T08:44:20.019Z,18.10
2022-11-19T08:46:47.181Z,21.00
2022-11-19T08:49:14.208Z,33.30
2022-11-19T08:51:41.095Z,24.40
2022-11-19T08:54:08.295Z,24.80
2022-11-19T08:56:35.248Z,25.20
2022-11-19T08:59:03.115Z,17.70
2022-11-19T09:01:30.429Z,25.20
2022-11-19T09:03:57.707Z,22.20
2022-11-19T09:06:24.557Z,25.00
2022-11-19T09:08:51.627Z,26.40
2022-11-19T09:11:20.394Z,21.20
2022-11-19T09:13:47.353Z,24.40
2022-11-19T09:16:14.874Z,29.90
2022-11-19T09:18:41.692Z,29.50
2022-11-19T09:21:11.082Z,25.70
2022-11-19T09:23:39.155Z,26.70
2022-11-19T09:26:12.114Z,30.40
2022-11-19T09:28:39.452Z,23.70
2022-11-19T09:31:11.677Z,28.40
2022-11-19T09:33:41.683Z,26.50
2022-11-19T09:36:10.783Z,26.00
2022-11-19T09:38:38.812Z,25.60
2022-11-19T09:41:40.832Z,24.20
2022-11-19T09:44:55.768Z,27.40
2022-11-19T09:47:49.370Z,25.00
2022-11-19T09:50:18.501Z,25.90
2022-11-19T09:52:52.434Z,24.30
2022-11-19T09:55:32.595Z,20.50
2022-11-19T09:58:00.456Z,23.30
2022-11-19T10:00:30.464Z,36.50
2022-11-19T10:03:01.134Z,29.40
2022-11-19T10:06:08.619Z,145.30
2022-11-19T10:09:02.941Z,81.40
2022-11-19T10:12:03.856Z,104.90
2022-11-19T10:14:36.831Z,27.80
2022-11-19T10:17:12.386Z,23.40
2022-11-19T10:20:00.893Z,27.50
2022-11-19T10:22:38.361Z,18.30
2022-11-19T10:25:28.920Z,29.90
2022-11-19T10:28:11.048Z,24.70
2022-11-19T10:30:40.456Z,25.90
2022-11-19T10:33:29.046Z,45.60
2022-11-19T10:36:02.407Z,32.70
2022-11-19T10:38:55.543Z,45.60
2022-11-19T10:41:55.316Z,35.90
2022-11-19T10:44:45.776Z,73.70
2022-11-19T10:47:39.532Z,43.90
2022-11-19T10:50:11.160Z,30.30
2022-11-19T10:52:44.182Z,30.80
2022-11-19T10:55:19.749Z,26.50
2022-11-19T10:57:50.224Z,25.90
2022-11-19T11:00:17.426Z,26.30
2022-11-19T11:02:57.871Z,28.80
2022-11-19T11:05:24.676Z,22.30
2022-11-19T11:07:52.970Z,23.70
2022-11-19T11:10:25.959Z,22.40
2022-11-19T11:13:14.089Z,20.30
2022-11-19T11:15:46.886Z,24.40
2022-11-19T11:18:14.942Z,21.20
2022-11-19T11:20:47.949Z,28.70
2022-11-19T11:23:18.575Z,36.00
2022-11-19T11:25:58.966Z,35.30
2022-11-19T11:28:25.814Z,24.90
2022-11-19T11:31:01.651Z,23.10
2022-11-19T11:33:54.626Z,22.30
2022-11-19T11:36:25.659Z,27.20
2022-11-19T11:38:55.242Z,26.20
2022-11-19T11:44:23.374Z,21.20
2022-11-19T11:46:53.692Z,24.70
2022-11-19T11:49:29.723Z,26.20
2022-11-19T11:51:59.351Z,21.70
2022-11-19T11:54:26.221Z,30.40
2022-11-19T11:56:52.988Z,21.90
2022-11-19T11:59:29.350Z,27.60
2022-11-19T12:02:07.858Z,30.60
2022-11-19T12:04:35.286Z,27.50
2022-11-19T12:07:21.183Z,24.40
2022-11-19T12:10:16.931Z,23.10
2022-11-19T12:13:02.121Z,24.90
2022-11-19T12:15:50.678Z,25.30
2022-11-19T12:18:45.220Z,23.20
2022-11-19T12:21:18.409Z,27.30
2022-11-19T12:24:06.957Z,26.20
2022-11-19T12:26:55.448Z,22.80
2022-11-19T12:29:31.251Z,24.60
2022-11-19T12:32:03.687Z,22.00
2022-11-19T12:34:39.045Z,22.80
2022-11-19T12:37:24.414Z,25.10
2022-11-19T12:39:59.968Z,27.10
2022-11-19T12:42:35.265Z,27.80
2022-11-19T12:45:35.869Z,29.10
2022-11-19T12:48:05.642Z,26.00
2022-11-19T12:50:38.257Z,29.70
2022-11-19T12:53:05.119Z,29.30
2022-11-19T12:55:50.680Z,27.40
2022-11-19T12:58:45.342Z,32.50
2022-11-19T13:01:21.359Z,34.50
2022-11-19T13:03:48.340Z,41.80
2022-11-19T13:06:24.697Z,39.10
2022-11-19T13:08:58.297Z,48.70
2022-11-19T13:11:35.983Z,42.90
2022-11-19T13:14:11.176Z,37.00
2022-11-19T13:16:40.525Z,48.00
2022-11-19T13:19:19.859Z,35.00
2022-11-19T13:21:54.106Z,36.50
2022-11-19T13:24:46.338Z,40.40
2022-11-19T13:27:23.207Z,40.00
2022-11-19T13:29:58.521Z,36.40
2022-11-19T13:33:00.652Z,34.60
2022-11-19T13:35:45.361Z,38.00
2022-11-19T13:38:12.140Z,34.40
2022-11-19T13:40:47.015Z,33.60
2022-11-19T13:43:36.922Z,30.50
2022-11-19T13:46:14.776Z,29.10
2022-11-19T13:49:02.199Z,28.00
2022-11-19T13:51:34.972Z,29.30
2022-11-19T13:54:04.265Z,28.10
2022-11-19T13:56:57.759Z,31.50
2022-11-19T13:59:43.084Z,26.00
2022-11-19T14:02:19.683Z,32.80
2022-11-19T14:05:25.961Z,25.90
2022-11-19T14:08:24.275Z,29.10
2022-11-19T14:11:09.543Z,34.00
2022-11-19T14:14:36.063Z,37.80
2022-11-19T14:17:49.299Z,37.40
2022-11-19T14:20:59.348Z,40.10
2022-11-19T14:24:05.448Z,44.10
2022-11-19T14:26:41.698Z,45.20
2022-11-19T14:29:17.966Z,45.60
2022-11-19T14:32:11.449Z,35.50
2022-11-19T14:34:39.984Z,45.00
2022-11-19T14:37:19.937Z,34.80
2022-11-19T14:39:55.922Z,38.00
2022-11-19T14:42:23.180Z,35.70
2022-11-19T14:45:02.363Z,35.30
2022-11-19T14:47:36.154Z,35.60
2022-11-19T14:50:27.363Z,38.30
2022-11-19T14:52:56.783Z,32.60
2022-11-19T14:55:27.233Z,38.00
2022-11-19T14:58:01.898Z,37.20
2022-11-19T15:00:37.012Z,48.00
2022-11-19T15:03:11.424Z,34.20
2022-11-19T15:05:45.565Z,62.50
2022-11-19T15:08:18.583Z,48.00
2022-11-19T15:11:05.303Z,65.00
2022-11-19T15:13:33.834Z,60.40
2022-11-19T15:16:18.897Z,58.00
2022-11-19T15:18:46.092Z,57.70
2022-11-19T15:21:42.655Z,43.10
2022-11-19T15:24:16.879Z,56.10
2022-11-19T15:27:18.612Z,66.10
2022-11-19T15:30:18.361Z,67.80
2022-11-19T15:32:59.990Z,70.80
2022-11-19T15:35:35.035Z,62.60
2022-11-19T15:38:20.373Z,67.30
2022-11-19T15:40:50.952Z,68.20
2022-11-19T15:43:45.337Z,71.40
2022-11-19T15:46:18.283Z,74.50
2022-11-19T15:48:56.284Z,75.00
2022-11-19T15:51:23.866Z,80.60
2022-11-19T15:53:59.298Z,79.80
2022-11-19T15:56:32.580Z,68.30
2022-11-19T15:59:02.795Z,67.80
2022-11-19T16:01:33.892Z,60.80
2022-11-19T16:04:07.197Z,64.10
2022-11-19T16:06:36.592Z,60.70
2022-11-19T16:09:08.158Z,72.00
2022-11-19T16:11:56.278Z,59.10
2022-11-19T16:14:44.697Z,71.30
2022-11-19T16:17:44.180Z,56.90
2022-11-19T16:20:18.864Z,69.90
2022-11-19T16:22:48.904Z,56.90
2022-11-19T16:25:35.292Z,51.60
2022-11-19T16:28:06.503Z,66.10
2022-11-19T16:30:49.017Z,63.00
2022-11-19T16:33:30.451Z,67.60
2022-11-19T16:36:13.171Z,65.00
2022-11-19T16:38:42.872Z,63.90
2022-11-19T16:41:31.130Z,61.50
2022-11-19T16:43:58.838Z,57.80
2022-11-19T16:46:29.253Z,59.30
2022-11-19T16:48:58.773Z,52.90
2022-11-19T16:51:39.451Z,56.80
2022-11-19T16:54:10.676Z,45.20
2022-11-19T16:56:42.469Z,58.60
2022-11-19T16:59:20.943Z,36.90
2022-11-19T17:01:57.947Z,55.90
2022-11-19T17:04:30.069Z,50.30
2022-11-19T17:06:58.653Z,61.40
2022-11-19T17:09:43.970Z,61.40
2022-11-19T17:12:33.628Z,83.60
2022-11-19T17:15:21.865Z,88.40
2022-11-19T17:17:51.323Z,79.50
2022-11-19T17:20:27.458Z,59.10
2022-11-19T17:22:56.279Z,100.50
2022-11-19T17:25:23.913Z,107.30
2022-11-19T17:27:55.849Z,93.70
2022-11-19T17:30:26.203Z,79.90
2022-11-19T17:33:00.212Z,82.40
2022-11-19T17:35:37.218Z,62.00
2022-11-19T17:38:16.989Z,59.10
2022-11-19T17:40:58.480Z,57.60
2022-11-19T17:43:58.332Z,54.80
2022-11-19T17:46:28.719Z,63.70
2022-11-19T17:48:56.688Z,63.10
2022-11-19T17:51:25.510Z,60.20
2022-11-19T17:53:52.816Z,52.70
2022-11-19T17:56:26.604Z,49.80
2022-11-19T17:58:54.267Z,48.50
2022-11-19T18:01:21.845Z,65.80
2022-11-19T18:03:49.011Z,39.10
2022-11-19T18:06:17.654Z,40.50
2022-11-19T18:08:45.392Z,41.30
2022-11-19T18:11:16.122Z,51.10
2022-11-19T18:13:44.388Z,53.60
2022-11-19T18:16:22.473Z,44.50
2022-11-19T18:18:50.241Z,50.50
2022-11-19T18:21:20.008Z,39.60
2022-11-19T18:23:49.745Z,43.20
2022-11-19T18:26:19.085Z,61.10
2022-11-19T18:28:48.785Z,49.70
2022-11-19T18:31:18.259Z,48.70
2022-11-19T18:33:47.498Z,63.40
2022-11-19T18:36:15.188Z,66.90
2022-11-19T18:38:42.682Z,62.30
2022-11-19T18:41:10.833Z,58.80
2022-11-19T18:43:56.099Z,61.20
2022-11-19T18:46:23.230Z,69.10
2022-11-19T18:48:50.426Z,58.80
2022-11-19T18:51:17.277Z,47.70
2022-11-19T18:53:44.045Z,60.70
2022-11-19T18:56:15.215Z,55.70
2022-11-19T18:58:42.441Z,47.40
2022-11-19T19:01:09.619Z,57.80
2022-11-19T19:03:36.978Z,56.60
2022-11-19T19:06:06.719Z,57.90
2022-11-19T19:08:34.335Z,61.90
2022-11-19T19:11:24.135Z,61.10
2022-11-19T19:13:51.540Z,76.60
2022-11-19T19:16:18.380Z,67.80
2022-11-19T19:18:45.379Z,59.10
2022-11-19T19:21:17.076Z,56.70
2022-11-19T19:23:44.319Z,46.40
2022-11-19T19:26:12.786Z,61.60
2022-11-19T19:28:39.741Z,45.30
2022-11-19T19:31:06.873Z,47.90
2022-11-19T19:33:34.457Z,59.00
2022-11-19T19:36:05.564Z,60.30
2022-11-19T19:38:32.542Z,62.90
2022-11-19T19:41:07.229Z,60.30
2022-11-19T19:43:34.249Z,61.30
2022-11-19T19:46:04.687Z,87.20
2022-11-19T19:48:31.836Z,110.80
2022-11-19T19:50:58.869Z,114.80
2022-11-19T19:53:25.762Z,106.80
2022-11-19T19:56:02.035Z,108.40
2022-11-19T19:58:28.888Z,126.50
2022-11-19T20:01:06.078Z,141.00
2022-11-19T20:03:34.547Z,121.40
2022-11-19T20:06:02.948Z,92.20
2022-11-19T20:08:30.488Z,83.80
2022-11-19T20:11:02.744Z,78.90
2022-11-19T20:13:32.592Z,86.40
2022-11-19T20:16:05.010Z,88.70
2022-11-19T20:18:33.325Z,70.00
2022-11-19T20:21:01.161Z,49.40
2022-11-19T20:23:28.162Z,58.20
2022-11-19T20:26:00.104Z,60.10
2022-11-19T20:28:28.396Z,71.30
2022-11-19T20:31:25.452Z,53.90
2022-11-19T20:33:58.387Z,57.40
2022-11-19T20:36:27.513Z,55.60
2022-11-19T20:38:56.803Z,48.80
2022-11-19T20:41:43.480Z,55.40
2022-11-19T20:44:21.354Z,47.50
2022-11-19T20:46:57.310Z,53.30
2022-11-19T20:49:26.808Z,52.10
2022-11-19T20:51:54.335Z,61.90
2022-11-19T20:54:22.614Z,49.90
2022-11-19T20:56:50.725Z,53.10
2022-11-19T20:59:18.752Z,44.30
2022-11-19T21:01:48.750Z,46.20
2022-11-19T21:04:15.757Z,45.70
2022-11-19T21:06:42.484Z,43.40
2022-11-19T21:09:09.372Z,45.00
2022-11-19T21:11:36.366Z,44.00
2022-11-19T21:14:04.283Z,47.60
2022-11-19T21:16:32.341Z,47.80
2022-11-19T21:19:00.291Z,40.70
2022-11-19T21:21:27.748Z,41.80
2022-11-19T21:23:55.248Z,36.80
2022-11-19T21:26:24.287Z,48.00
2022-11-19T21:28:53.553Z,45.70
2022-11-19T21:31:37.244Z,42.80
2022-11-19T21:34:11.851Z,47.50
2022-11-19T21:36:41.379Z,41.60
2022-11-19T21:39:09.282Z,38.10
2022-11-19T21:41:36.633Z,44.10
2022-11-19T21:44:04.782Z,44.80
2022-11-19T21:46:31.863Z,46.90
2022-11-19T21:48:58.721Z,34.70
2022-11-19T21:51:25.645Z,48.50
2022-11-19T21:53:54.929Z,44.90
2022-11-19T21:56:22.401Z,38.90
2022-11-19T21:58:49.254Z,55.60
2022-11-19T22:01:16.290Z,40.10
2022-11-19T22:03:43.143Z,40.70
2022-11-19T22:06:11.120Z,50.90
2022-11-19T22:08:40.240Z,53.80
2022-11-19T22:11:27.790Z,48.20
2022-11-19T22:13:57.059Z,43.70
2022-11-19T22:16:23.932Z,34.20
2022-11-19T22:18:50.691Z,41.40
2022-11-19T22:21:18.669Z,42.50
2022-11-19T22:23:45.977Z,41.60
2022-11-19T22:26:14.919Z,43.50
2022-11-19T22:28:41.721Z,50.50
2022-11-19T22:31:09.037Z,53.10
2022-11-19T22:33:38.522Z,50.70
2022-11-19T22:36:10.068Z,43.60
2022-11-19T22:38:38.572Z,40.70
2022-11-19T22:41:12.188Z,36.90
2022-11-19T22:43:39.944Z,50.00
2022-11-19T22:46:09.240Z,39.80
2022-11-19T22:48:36.252Z,35.90
2022-11-19T22:51:12.942Z,56.30
2022-11-19T22:53:40.531Z,37.90
2022-11-19T22:56:09.882Z,46.90
2022-11-19T22:58:37.802Z,32.50
2022-11-19T23:01:06.388Z,45.50
2022-11-19T23:03:33.230Z,41.50
2022-11-19T23:06:00.045Z,41.00
2022-11-19T23:08:26.833Z,44.80
2022-11-19T23:10:59.309Z,45.10
2022-11-19T23:13:32.289Z,37.70
2022-11-19T23:16:06.821Z,42.50
2022-11-19T23:18:47.432Z,41.10
2022-11-19T23:21:17.854Z,40.90
2022-11-19T23:23:44.682Z,36.10
2022-11-19T23:26:14.041Z,37.30
2022-11-19T23:28:41.347Z,40.50
2022-11-19T23:31:29.726Z,36.60
2022-11-19T23:33:59.286Z,35.00
2022-11-19T23:36:34.987Z,35.20
2022-11-19T23:39:03.119Z,27.00
2022-11-19T23:41:32.104Z,40.50
2022-11-19T23:43:59.041Z,30.20
2022-11-19T23:46:30.881Z,30.50
2022-11-19T23:48:58.731Z,26.80
2022-11-19T23:51:28.396Z,30.40
2022-11-19T23:53:56.164Z,28.00
2022-11-19T23:56:24.260Z,32.80
2022-11-19T23:58:51.659Z,28.30
